createdAt,value
2018-09-15T00:01:19.029Z,99468.44
2018-09-15T00:03:46.211Z,99469.05
2018-09-15T00:06:13.362Z,99474.83
2018-09-15T00:08:40.612Z,99479.93
2018-09-15T00:11:07.729Z,99486.62
2018-09-15T00:13:34.946Z,99479.05
2018-09-15T00:16:02.221Z,99487.25
2018-09-15T00:18:29.317Z,99493.64
2018-09-15T00:20:56.477Z,99491.55
2018-09-15T00:23:25.323Z,99494.08
2018-09-15T00:25:52.473Z,99487.66
2018-09-15T00:28:19.645Z,99493.08
2018-09-15T00:30:46.837Z,99495.39
2018-09-15T00:33:13.968Z,99490.70
2018-09-15T00:35:41.123Z,99494.52
2018-09-15T00:38:08.265Z,99440.47
2018-09-15T00:40:35.477Z,99487.27
2018-09-15T00:43:02.594Z,99481.17
2018-09-15T00:45:29.793Z,99488.91
2018-09-15T00:47:57.522Z,99487.62
2018-09-15T00:50:24.691Z,99493.10
2018-09-15T00:52:51.823Z,99490.97
2018-09-15T00:55:19.128Z,99494.08
2018-09-15T00:57:46.329Z,99493.30
2018-09-15T01:00:13.462Z,99490.66
2018-09-15T01:02:40.614Z,99497.01
2018-09-15T01:05:07.764Z,99493.57
2018-09-15T01:07:34.955Z,99496.23
2018-09-15T01:10:02.139Z,99503.55
2018-09-15T01:12:29.366Z,99497.47
2018-09-15T01:14:56.519Z,99499.95
2018-09-15T01:17:23.689Z,99497.64
2018-09-15T01:19:50.865Z,99499.55
2018-09-15T01:22:18.202Z,99496.94
2018-09-15T01:24:45.739Z,99494.74
2018-09-15T01:27:13.194Z,99494.48
2018-09-15T01:29:40.422Z,99491.39
2018-09-15T01:32:07.568Z,99497.09
2018-09-15T01:34:34.699Z,99488.73
2018-09-15T01:37:01.877Z,99498.80
2018-09-15T01:39:29.089Z,99495.66
2018-09-15T01:41:56.242Z,99497.52
2018-09-15T01:44:23.786Z,99496.71
2018-09-15T01:46:50.933Z,99501.91
2018-09-15T01:49:18.120Z,99502.72
2018-09-15T01:51:45.233Z,99507.84
2018-09-15T01:54:12.391Z,99500.98
2018-09-15T01:56:39.636Z,99505.77
2018-09-15T01:59:06.853Z,99504.69
2018-09-15T02:01:34.026Z,99512.95
2018-09-15T02:04:01.226Z,99512.16
2018-09-15T02:06:28.394Z,99514.31
2018-09-15T02:08:55.551Z,99516.72
2018-09-15T02:11:22.705Z,99520.73
2018-09-15T02:13:49.865Z,99522.34
2018-09-15T02:16:17.014Z,99526.63
2018-09-15T02:18:44.213Z,99527.97
2018-09-15T02:21:11.386Z,99523.91
2018-09-15T02:23:38.534Z,99528.41
2018-09-15T02:26:05.690Z,99543.91
2018-09-15T02:28:32.812Z,99547.10
2018-09-15T02:31:00.013Z,99541.01
2018-09-15T02:33:27.133Z,99543.16
2018-09-15T02:35:54.275Z,99541.82
2018-09-15T02:38:21.387Z,99538.89
2018-09-15T02:40:48.573Z,99538.13
2018-09-15T02:43:15.734Z,99535.75
2018-09-15T02:45:42.911Z,99543.73
2018-09-15T02:48:10.063Z,99542.63
2018-09-15T02:50:37.266Z,99536.52
2018-09-15T02:53:04.402Z,99542.11
2018-09-15T02:55:31.587Z,99543.45
2018-09-15T02:57:58.763Z,99551.47
2018-09-15T03:00:25.924Z,99544.31
2018-09-15T03:02:53.048Z,99553.65
2018-09-15T03:05:20.173Z,99555.53
2018-09-15T03:07:47.334Z,99561.90
2018-09-15T03:10:14.498Z,99562.45
2018-09-15T03:12:41.651Z,99559.77
2018-09-15T03:15:08.749Z,99559.48
2018-09-15T03:17:35.893Z,99564.55
2018-09-15T03:20:03.450Z,99570.39
2018-09-15T03:22:30.642Z,99568.27
2018-09-15T03:24:57.792Z,99571.97
2018-09-15T03:27:25.121Z,99567.46
2018-09-15T03:29:52.245Z,99573.58
2018-09-15T03:32:19.420Z,99576.23
2018-09-15T03:34:46.562Z,99581.30
2018-09-15T03:37:13.728Z,99575.46
2018-09-15T03:39:40.919Z,99578.64
2018-09-15T03:42:08.089Z,99576.27
2018-09-15T03:44:35.251Z,99579.98
2018-09-15T03:47:02.453Z,99587.68
2018-09-15T03:49:29.640Z,99593.27
2018-09-15T03:51:56.908Z,99584.78
2018-09-15T03:54:24.028Z,99593.27
2018-09-15T03:56:51.157Z,99586.38
2018-09-15T03:59:18.299Z,99590.07
2018-09-15T04:01:46.066Z,99549.44
2018-09-15T04:04:13.222Z,99509.31
2018-09-15T04:06:40.545Z,99594.02
2018-09-15T04:09:09.703Z,99595.86
2018-09-15T04:11:37.010Z,99596.14
2018-09-15T04:14:04.578Z,99593.00
2018-09-15T04:16:31.734Z,99596.44
2018-09-15T04:18:58.958Z,99597.73
2018-09-15T04:21:26.101Z,99597.70
2018-09-15T04:23:53.235Z,99599.03
2018-09-15T04:26:20.342Z,99592.64
2018-09-15T04:28:47.482Z,99596.91
2018-09-15T04:31:14.631Z,99599.02
2018-09-15T04:33:41.885Z,99605.39
2018-09-15T04:36:09.061Z,99604.07
2018-09-15T04:38:36.287Z,99599.28
2018-09-15T04:41:03.523Z,99391.57
2018-09-15T04:43:30.610Z,99601.41
2018-09-15T04:45:57.765Z,99602.17
2018-09-15T04:48:24.880Z,99607.78
2018-09-15T04:53:18.772Z,99620.45
2018-09-15T04:55:45.996Z,99625.51
2018-09-15T04:58:13.173Z,99627.36
2018-09-15T05:00:40.364Z,99633.46
2018-09-15T05:03:07.550Z,99634.54
2018-09-15T05:05:34.816Z,99631.05
2018-09-15T05:08:01.947Z,99634.20
2018-09-15T05:10:29.092Z,99639.72
2018-09-15T05:12:56.314Z,99645.56
2018-09-15T05:15:23.556Z,99659.32
2018-09-15T05:17:51.487Z,99660.94
2018-09-15T05:20:18.762Z,99661.16
2018-09-15T05:22:46.001Z,99664.91
2018-09-15T05:25:13.152Z,99666.48
2018-09-15T05:27:40.326Z,99667.84
2018-09-15T05:30:07.863Z,99672.40
2018-09-15T05:32:35.952Z,99678.12
2018-09-15T05:35:03.170Z,99682.39
2018-09-15T05:37:30.350Z,99683.47
2018-09-15T05:39:57.504Z,99685.11
2018-09-15T05:42:24.690Z,99688.13
2018-09-15T05:44:51.886Z,99687.61
2018-09-15T05:47:19.048Z,99688.44
2018-09-15T05:49:46.639Z,99692.45
2018-09-15T05:52:13.746Z,99694.83
2018-09-15T05:54:40.941Z,99694.05
2018-09-15T05:57:08.425Z,99694.02
2018-09-15T05:59:35.573Z,99696.42
2018-09-15T06:02:02.730Z,99700.63
2018-09-15T06:04:29.900Z,99698.52
2018-09-15T06:06:57.322Z,99700.88
2018-09-15T06:09:24.470Z,99703.30
2018-09-15T06:11:51.602Z,99702.28
2018-09-15T06:14:19.219Z,99705.78
2018-09-15T06:16:46.341Z,99700.45
2018-09-15T06:19:13.549Z,99700.45
2018-09-15T06:21:40.670Z,99700.70
2018-09-15T06:24:07.892Z,99699.41
2018-09-15T06:26:35.249Z,99707.62
2018-09-15T06:29:02.514Z,99594.89
2018-09-15T06:31:29.758Z,99703.42
2018-09-15T06:33:57.080Z,99705.04
2018-09-15T06:36:24.365Z,99698.14
2018-09-15T06:38:51.512Z,99706.16
2018-09-15T06:41:18.634Z,99702.43
2018-09-15T06:43:45.837Z,99714.13
2018-09-15T06:46:12.969Z,99715.69
2018-09-15T06:48:40.115Z,99721.43
2018-09-15T06:51:08.141Z,99717.50
2018-09-15T06:53:35.496Z,99709.30
2018-09-15T06:56:02.845Z,99716.51
2018-09-15T06:58:30.051Z,99720.99
2018-09-15T07:00:57.745Z,99717.83
2018-09-15T07:03:24.898Z,99716.80
2018-09-15T07:05:52.089Z,99723.72
2018-09-15T07:08:19.238Z,99720.27
2018-09-15T07:10:46.561Z,99725.30
2018-09-15T07:13:13.791Z,99726.09
2018-09-15T07:15:40.951Z,99724.50
2018-09-15T07:18:08.462Z,99728.48
2018-09-15T07:20:36.459Z,99737.52
2018-09-15T07:23:04.619Z,99734.02
2018-09-15T07:25:31.874Z,99686.73
2018-09-15T07:27:59.025Z,99747.60
2018-09-15T07:30:26.159Z,99744.63
2018-09-15T07:32:53.346Z,99749.37
2018-09-15T07:35:20.513Z,99753.88
2018-09-15T07:37:47.751Z,99752.48
2018-09-15T07:40:15.967Z,99745.78
2018-09-15T07:42:43.190Z,99753.70
2018-09-15T07:45:10.586Z,99760.64
2018-09-15T07:47:37.831Z,99756.36
2018-09-15T07:50:05.076Z,99759.53
2018-09-15T07:52:32.229Z,99762.19
2018-09-15T07:54:59.402Z,99764.80
2018-09-15T07:57:26.925Z,99761.44
2018-09-15T07:59:54.959Z,99765.44
2018-09-15T08:02:22.933Z,99762.53
2018-09-15T08:04:51.158Z,99771.81
2018-09-15T08:07:18.328Z,99769.06
2018-09-15T08:09:46.125Z,99775.64
2018-09-15T08:12:13.629Z,99772.89
2018-09-15T08:14:41.079Z,99774.42
2018-09-15T08:17:08.255Z,99774.80
2018-09-15T08:19:35.401Z,99774.66
2018-09-15T08:22:02.555Z,99775.39
2018-09-15T08:24:29.991Z,99776.69
2018-09-15T08:26:57.230Z,99778.95
2018-09-15T08:29:24.451Z,99779.22
2018-09-15T08:31:51.753Z,99780.48
2018-09-15T08:34:18.881Z,99786.48
2018-09-15T08:36:46.122Z,99788.77
2018-09-15T08:39:13.385Z,99784.75
2018-09-15T08:41:40.597Z,99791.81
2018-09-15T08:44:07.810Z,99791.93
2018-09-15T08:46:35.090Z,99794.81
2018-09-15T08:49:02.361Z,99803.09
2018-09-15T08:51:29.714Z,99800.38
2018-09-15T08:53:56.942Z,99796.92
2018-09-15T08:56:24.123Z,99797.13
2018-09-15T08:58:51.619Z,99799.62
2018-09-15T09:01:18.843Z,99798.13
2018-09-15T09:03:46.167Z,99794.78
2018-09-15T09:06:13.279Z,99801.23
2018-09-15T09:08:41.251Z,99799.56
2018-09-15T09:11:08.374Z,99802.09
2018-09-15T09:13:35.530Z,99803.94
2018-09-15T09:16:02.807Z,99793.35
2018-09-15T09:18:30.015Z,99796.10
2018-09-15T09:20:57.185Z,99796.38
2018-09-15T09:23:24.556Z,99798.91
2018-09-15T09:25:51.858Z,99801.72
2018-09-15T09:28:19.042Z,99800.32
2018-09-15T09:30:46.882Z,99801.09
2018-09-15T09:33:14.044Z,99808.34
2018-09-15T09:35:41.513Z,99797.97
2018-09-15T09:38:08.739Z,99804.75
2018-09-15T09:40:36.033Z,99800.77
2018-09-15T09:43:03.301Z,99799.48
2018-09-15T09:45:30.692Z,99796.65
2018-09-15T09:47:58.176Z,99807.24
2018-09-15T09:50:29.203Z,99806.59
2018-09-15T09:52:56.470Z,99802.23
2018-09-15T09:55:23.777Z,99806.66
2018-09-15T09:57:51.102Z,99792.86
2018-09-15T10:00:24.155Z,99794.54
2018-09-15T10:02:51.357Z,99797.51
2018-09-15T10:05:18.709Z,99792.14
2018-09-15T10:07:45.955Z,99788.97
2018-09-15T10:10:13.234Z,99790.25
2018-09-15T10:12:40.462Z,99790.17
2018-09-15T10:15:08.196Z,99795.84
2018-09-15T10:17:35.670Z,99784.89
2018-09-15T10:20:03.839Z,99788.06
2018-09-15T10:22:31.064Z,99785.52
2018-09-15T10:24:58.363Z,99782.56
2018-09-15T10:27:25.533Z,99778.45
2018-09-15T10:29:52.776Z,99789.17
2018-09-15T10:32:19.910Z,99786.97
2018-09-15T10:34:47.161Z,99783.41
2018-09-15T10:37:14.387Z,99779.82
2018-09-15T10:39:41.812Z,99787.53
2018-09-15T10:42:09.616Z,99787.02
2018-09-15T10:44:36.816Z,99782.94
2018-09-15T10:47:04.082Z,99777.55
2018-09-15T10:49:31.257Z,99773.48
2018-09-15T10:51:58.561Z,99775.83
2018-09-15T10:54:26.604Z,99608.84
2018-09-15T10:56:54.085Z,99774.02
2018-09-15T10:59:21.430Z,99769.39
2018-09-15T11:01:48.701Z,99774.13
2018-09-15T11:04:15.994Z,99779.33
2018-09-15T11:06:43.374Z,99783.61
2018-09-15T11:09:10.834Z,99783.23
2018-09-15T11:11:38.278Z,99787.06
2018-09-15T11:14:10.966Z,99791.42
2018-09-15T11:16:38.526Z,99794.91
2018-09-15T11:19:05.890Z,99789.80
2018-09-15T11:21:33.263Z,99786.29
2018-09-15T11:24:01.132Z,99785.22
2018-09-15T11:26:28.571Z,99774.13
2018-09-15T11:28:55.777Z,99776.96
2018-09-15T11:31:22.993Z,99789.50
2018-09-15T11:33:50.178Z,99777.96
2018-09-15T11:36:17.325Z,99785.94
2018-09-15T11:38:44.498Z,99774.98
2018-09-15T11:41:11.825Z,99771.97
2018-09-15T11:43:39.407Z,99775.55
2018-09-15T11:46:06.637Z,99762.50
2018-09-15T11:48:33.997Z,99758.56
2018-09-15T11:51:01.180Z,99754.58
2018-09-15T11:53:28.435Z,99759.38
2018-09-15T11:55:55.652Z,99758.23
2018-09-15T11:58:23.570Z,99755.38
2018-09-15T12:00:54.047Z,99754.34
2018-09-15T12:03:21.304Z,99761.12
2018-09-15T12:05:48.662Z,99762.16
2018-09-15T12:08:15.853Z,99762.69
2018-09-15T12:10:43.191Z,99757.63
2018-09-15T12:13:10.426Z,99757.81
2018-09-15T12:15:37.591Z,99745.27
2018-09-15T12:18:04.807Z,99751.40
2018-09-15T12:20:32.109Z,99757.95
2018-09-15T12:22:59.668Z,99746.93
2018-09-15T12:25:26.850Z,99746.75
2018-09-15T12:27:54.230Z,99748.97
2018-09-15T12:30:21.379Z,99742.55
2018-09-15T12:32:48.555Z,99747.88
2018-09-15T12:35:15.801Z,99744.23
2018-09-15T12:37:43.081Z,99746.38
2018-09-15T12:40:10.262Z,99740.94
2018-09-15T12:42:37.510Z,99735.57
2018-09-15T12:45:05.003Z,99740.77
2018-09-15T12:47:32.481Z,99738.05
2018-09-15T12:49:59.651Z,99733.81
2018-09-15T12:52:27.002Z,99740.75
2018-09-15T12:54:54.145Z,99728.98
2018-09-15T12:57:21.337Z,99735.17
2018-09-15T12:59:48.550Z,99725.29
2018-09-15T13:02:15.750Z,99720.20
2018-09-15T13:04:43.773Z,99724.71
2018-09-15T13:07:11.137Z,99726.37
2018-09-15T13:09:40.594Z,99721.05
2018-09-15T13:12:07.910Z,99719.16
2018-09-15T13:14:35.233Z,99719.02
2018-09-15T13:17:02.502Z,99713.78
2018-09-15T13:19:29.713Z,99703.47
2018-09-15T13:21:56.906Z,99707.59
2018-09-15T13:24:24.192Z,99699.42
2018-09-15T13:26:51.565Z,99701.98
2018-09-15T13:29:19.467Z,99608.84
2018-09-15T13:31:46.803Z,99692.72
2018-09-15T13:34:14.064Z,99685.33
2018-09-15T13:36:41.467Z,99687.05
2018-09-15T13:39:10.508Z,99686.89
2018-09-15T13:41:37.762Z,99686.23
2018-09-15T13:44:05.930Z,99686.44
2018-09-15T13:46:33.954Z,99680.58
2018-09-15T13:49:01.413Z,99675.17
2018-09-15T13:51:29.055Z,99668.05
2018-09-15T13:53:56.360Z,99671.66
2018-09-15T13:56:23.681Z,99667.58
2018-09-15T13:58:51.065Z,99671.44
2018-09-15T14:01:18.502Z,99668.48
2018-09-15T14:03:46.608Z,99674.36
2018-09-15T14:06:14.128Z,99652.39
2018-09-15T14:08:41.364Z,99674.20
2018-09-15T14:11:08.710Z,99675.08
2018-09-15T14:13:36.139Z,99686.92
2018-09-15T14:16:03.335Z,99685.14
2018-09-15T14:18:30.639Z,99675.85
2018-09-15T14:20:58.103Z,99680.64
2018-09-15T14:23:25.511Z,99679.41
2018-09-15T14:25:52.875Z,99680.09
2018-09-15T14:28:20.051Z,99683.08
2018-09-15T14:30:47.862Z,99690.03
2018-09-15T14:33:15.094Z,99684.34
2018-09-15T14:35:43.578Z,99683.44
2018-09-15T14:38:10.869Z,99685.26
2018-09-15T14:40:38.295Z,99685.73
2018-09-15T14:43:06.098Z,99682.70
2018-09-15T14:45:33.692Z,99686.22
2018-09-15T14:48:01.322Z,99685.17
2018-09-15T14:50:28.629Z,99681.25
2018-09-15T14:52:56.014Z,99686.95
2018-09-15T14:55:23.263Z,99679.52
2018-09-15T14:57:50.444Z,99676.17
2018-09-15T15:00:17.570Z,99679.56
2018-09-15T15:02:49.367Z,99677.08
2018-09-15T15:05:16.598Z,99683.52
2018-09-15T15:07:43.844Z,99678.28
2018-09-15T15:10:11.212Z,99673.92
2018-09-15T15:12:38.464Z,99674.03
2018-09-15T15:15:05.794Z,99672.70
2018-09-15T15:17:33.031Z,99664.23
2018-09-15T15:20:00.758Z,99661.63
2018-09-15T15:22:28.070Z,99658.66
2018-09-15T15:24:55.277Z,99656.03
2018-09-15T15:27:22.526Z,99663.78
2018-09-15T15:29:49.901Z,99668.03
2018-09-15T15:32:17.270Z,99666.53
2018-09-15T15:34:44.946Z,99669.30
2018-09-15T15:37:12.226Z,99670.19
2018-09-15T15:39:39.491Z,99674.36
2018-09-15T15:42:06.672Z,99645.77
2018-09-15T15:44:33.869Z,99672.59
2018-09-15T15:47:01.229Z,99677.19
2018-09-15T15:49:28.595Z,99671.32
2018-09-15T15:51:55.907Z,99670.77
2018-09-15T15:54:23.260Z,99665.80
2018-09-15T15:56:50.561Z,99671.27
2018-09-15T15:59:18.125Z,99673.73
2018-09-15T16:01:45.553Z,99675.16
2018-09-15T16:04:12.789Z,99679.03
2018-09-15T16:06:39.973Z,99685.27
2018-09-15T16:09:07.698Z,99686.66
2018-09-15T16:11:35.190Z,99682.56
2018-09-15T16:14:02.534Z,99649.67
2018-09-15T16:16:29.773Z,99683.66
2018-09-15T16:18:56.945Z,99678.50
2018-09-15T16:21:24.170Z,99680.42
2018-09-15T16:23:51.337Z,99683.58
2018-09-15T16:26:18.873Z,99679.05
2018-09-15T16:28:46.125Z,99689.90
2018-09-15T16:31:13.333Z,99691.25
2018-09-15T16:33:41.412Z,99661.28
2018-09-15T16:36:09.394Z,99682.47
2018-09-15T16:38:36.714Z,99679.88
2018-09-15T16:41:04.315Z,99679.45
2018-09-15T16:43:31.578Z,99681.48
2018-09-15T16:45:58.840Z,99676.56
2018-09-15T16:48:26.092Z,99677.39
2018-09-15T16:50:53.333Z,99681.56
2018-09-15T16:53:21.335Z,99675.55
2018-09-15T16:55:48.700Z,99674.12
2018-09-15T16:58:15.903Z,99676.88
2018-09-15T17:00:43.062Z,99675.74
2018-09-15T17:03:10.398Z,99680.77
2018-09-15T17:05:37.577Z,99687.27
2018-09-15T17:08:04.749Z,99686.09
2018-09-15T17:10:31.957Z,99689.19
2018-09-15T17:12:59.311Z,99682.44
2018-09-15T17:15:26.570Z,99693.45
2018-09-15T17:17:53.808Z,99651.03
2018-09-15T17:20:21.180Z,99694.97
2018-09-15T17:22:48.976Z,99692.88
2018-09-15T17:25:16.331Z,99695.70
2018-09-15T17:27:43.546Z,99697.59
2018-09-15T17:30:10.897Z,99708.42
2018-09-15T17:32:38.273Z,99703.81
2018-09-15T17:35:05.485Z,99704.44
2018-09-15T17:37:32.701Z,99706.17
2018-09-15T17:40:00.047Z,99704.10
2018-09-15T17:42:27.379Z,99712.09
2018-09-15T17:44:54.503Z,99640.86
2018-09-15T17:47:21.693Z,99706.36
2018-09-15T17:49:48.826Z,99711.63
2018-09-15T17:52:16.066Z,99716.44
2018-09-15T17:54:43.388Z,99723.87
2018-09-15T17:57:10.727Z,99733.23
2018-09-15T17:59:38.038Z,99737.72
2018-09-15T18:02:05.568Z,99731.56
2018-09-15T18:04:32.772Z,99738.73
2018-09-15T18:06:59.949Z,99742.39
2018-09-15T18:09:27.377Z,99747.64
2018-09-15T18:11:54.653Z,99747.13
2018-09-15T18:14:22.758Z,99752.11
2018-09-15T18:16:49.930Z,99752.35
2018-09-15T18:19:17.117Z,99751.73
2018-09-15T18:21:44.338Z,99758.16
2018-09-15T18:24:11.571Z,99756.28
2018-09-15T18:26:38.889Z,99756.09
2018-09-15T18:29:06.118Z,99757.14
2018-09-15T18:31:33.374Z,99760.77
2018-09-15T18:34:00.787Z,99762.12
2018-09-15T18:36:28.313Z,99765.55
2018-09-15T18:38:56.112Z,99766.80
2018-09-15T18:41:23.262Z,99763.81
2018-09-15T18:43:50.472Z,99761.53
2018-09-15T18:46:17.716Z,99774.08
2018-09-15T18:48:44.955Z,99777.34
2018-09-15T18:51:12.211Z,99781.21
2018-09-15T18:53:39.398Z,99776.90
2018-09-15T18:56:06.739Z,99773.80
2018-09-15T18:58:34.198Z,99776.30
2018-09-15T19:01:01.497Z,99773.30
2018-09-15T19:03:28.734Z,99781.78
2018-09-15T19:05:55.935Z,99783.30
2018-09-15T19:08:23.086Z,99782.02
2018-09-15T19:10:50.309Z,99788.45
2018-09-15T19:13:17.953Z,99790.69
2018-09-15T19:15:45.299Z,99793.66
2018-09-15T19:18:12.485Z,99800.63
2018-09-15T19:20:39.777Z,99794.27
2018-09-15T19:23:06.934Z,99797.55
2018-09-15T19:25:34.156Z,99802.89
2018-09-15T19:28:01.405Z,99801.39
2018-09-15T19:30:28.699Z,99803.39
2018-09-15T19:32:55.941Z,99799.62
2018-09-15T19:35:23.409Z,99799.33
2018-09-15T19:37:50.704Z,99802.98
2018-09-15T19:40:17.997Z,99804.75
2018-09-15T19:42:46.601Z,99809.62
2018-09-15T19:45:13.940Z,99807.64
2018-09-15T19:47:41.172Z,99807.33
2018-09-15T19:50:09.169Z,99808.28
2018-09-15T19:52:36.422Z,99805.09
2018-09-15T19:55:03.601Z,99809.19
2018-09-15T19:57:30.822Z,99806.63
2018-09-15T19:59:59.288Z,99809.30
2018-09-15T20:02:26.502Z,99803.23
2018-09-15T20:04:53.880Z,99806.55
2018-09-15T20:07:21.042Z,99803.59
2018-09-15T20:09:49.179Z,99807.91
2018-09-15T20:12:16.419Z,99809.22
2018-09-15T20:14:43.645Z,99811.13
2018-09-15T20:17:09.896Z,99812.22
2018-09-15T20:19:36.092Z,99813.55
2018-09-15T20:22:03.325Z,99810.70
2018-09-15T20:24:30.721Z,99821.51
2018-09-15T20:26:57.919Z,99823.45
2018-09-15T20:29:25.595Z,99819.02
2018-09-15T20:31:52.804Z,99819.25
2018-09-15T20:34:20.102Z,99816.05
2018-09-15T20:36:47.321Z,99819.03
2018-09-15T20:39:14.570Z,99821.46
2018-09-15T20:41:41.862Z,99817.20
2018-09-15T20:44:09.416Z,99821.78
2018-09-15T20:46:36.670Z,99816.97
2018-09-15T20:49:03.938Z,99812.48
2018-09-15T20:51:31.074Z,99822.61
2018-09-15T20:53:58.311Z,99825.34
2018-09-15T20:56:25.577Z,99823.25
2018-09-15T20:58:54.088Z,99830.16
2018-09-15T21:01:21.738Z,99828.01
2018-09-15T21:03:48.938Z,99825.06
2018-09-15T21:06:16.212Z,99829.36
2018-09-15T21:08:43.435Z,99828.84
2018-09-15T21:11:11.994Z,99836.60
2018-09-15T21:13:39.245Z,99834.52
2018-09-15T21:16:06.790Z,99833.99
2018-09-15T21:18:33.984Z,99829.15
2018-09-15T21:21:01.215Z,99827.81
2018-09-15T21:23:28.491Z,99824.63
2018-09-15T21:25:55.892Z,99827.81
2018-09-15T21:28:23.613Z,99835.56
2018-09-15T21:30:50.793Z,99841.70
2018-09-15T21:33:17.958Z,99840.69
2018-09-15T21:35:45.189Z,99840.13
2018-09-15T21:38:12.417Z,99839.36
2018-09-15T21:40:39.737Z,99837.22
2018-09-15T21:43:06.979Z,99829.76
2018-09-15T21:45:34.159Z,99833.25
2018-09-15T21:48:01.310Z,99826.88
2018-09-15T21:50:28.601Z,99827.13
2018-09-15T21:52:55.841Z,99819.72
2018-09-15T21:55:23.178Z,99823.45
2018-09-15T21:57:50.580Z,99822.64
2018-09-15T22:00:18.369Z,99828.23
2018-09-15T22:02:45.702Z,99827.66
2018-09-15T22:05:12.926Z,99827.67
2018-09-15T22:07:40.281Z,99832.20
2018-09-15T22:10:07.490Z,99830.84
2018-09-15T22:12:34.758Z,99832.19
2018-09-15T22:15:02.035Z,99834.05
2018-09-15T22:17:29.320Z,99833.52
2018-09-15T22:19:56.555Z,99834.30
2018-09-15T22:22:23.842Z,99828.50
2018-09-15T22:24:50.953Z,99832.47
2018-09-15T22:27:18.203Z,99824.73
2018-09-15T22:29:45.485Z,99824.48
2018-09-15T22:32:12.706Z,99826.84
2018-09-15T22:34:39.961Z,99824.47
2018-09-15T22:37:07.361Z,99825.27
2018-09-15T22:39:34.560Z,99826.52
2018-09-15T22:42:01.797Z,99824.88
2018-09-15T22:44:29.133Z,99827.68
2018-09-15T22:46:56.355Z,99821.38
2018-09-15T22:49:23.614Z,99822.20
2018-09-15T22:51:50.807Z,99819.44
2018-09-15T22:54:17.981Z,99812.52
2018-09-15T22:56:45.144Z,99822.86
2018-09-15T22:59:12.321Z,99822.05
2018-09-15T23:01:39.535Z,99822.05
2018-09-15T23:04:08.964Z,99822.84
2018-09-15T23:06:36.213Z,99825.73
2018-09-15T23:09:04.598Z,99817.77
2018-09-15T23:11:31.753Z,99815.64
2018-09-15T23:13:59.088Z,99824.36
2018-09-15T23:16:26.287Z,99819.56
2018-09-15T23:18:53.490Z,99821.97
2018-09-15T23:21:20.670Z,99819.34
2018-09-15T23:23:48.114Z,99822.49
2018-09-15T23:26:15.460Z,99820.11
2018-09-15T23:28:42.667Z,99827.75
2018-09-15T23:31:09.942Z,99819.48
2018-09-15T23:33:37.140Z,99815.51
2018-09-15T23:36:04.689Z,99811.52
2018-09-15T23:38:32.214Z,99807.80
2018-09-15T23:40:59.420Z,99806.70
2018-09-15T23:43:26.570Z,99806.36
2018-09-15T23:45:53.755Z,99810.59
2018-09-15T23:48:20.897Z,99813.24
2018-09-15T23:50:48.063Z,99807.91
2018-09-15T23:53:15.310Z,99816.64
2018-09-15T23:55:42.497Z,99813.39
2018-09-15T23:58:09.637Z,99812.92
